createdAt,value
2019-04-29T00:00:56.519Z,97042.53
2019-04-29T00:03:28.350Z,97046.84
2019-04-29T00:06:00.245Z,97039.70
2019-04-29T00:08:32.020Z,97038.41
2019-04-29T00:11:03.774Z,97037.27
2019-04-29T00:13:35.660Z,97037.32
2019-04-29T00:16:30.157Z,97039.20
2019-04-29T00:19:20.347Z,97027.84
2019-04-29T00:21:51.977Z,97026.88
2019-04-29T00:24:23.790Z,97026.08
2019-04-29T00:26:55.607Z,97029.84
2019-04-29T00:29:30.263Z,97031.14
2019-04-29T00:32:02.067Z,97035.84
2019-04-29T00:34:33.800Z,97034.32
2019-04-29T00:37:28.610Z,97037.64
2019-04-29T00:40:28.146Z,97036.66
2019-04-29T00:43:18.663Z,97036.31
2019-04-29T00:45:50.232Z,97040.64
2019-04-29T00:48:22.032Z,97034.00
2019-04-29T00:50:53.790Z,97038.84
2019-04-29T00:53:25.577Z,97041.33
2019-04-29T00:55:57.839Z,97040.92
2019-04-29T00:58:29.703Z,97041.93
2019-04-29T01:01:01.788Z,97037.34
2019-04-29T01:03:33.638Z,97040.30
2019-04-29T01:06:05.303Z,97038.72
2019-04-29T01:08:36.994Z,97036.59
2019-04-29T01:11:08.777Z,97040.02
2019-04-29T01:13:40.584Z,97039.69
2019-04-29T01:16:12.310Z,97042.91
2019-04-29T01:18:44.132Z,97044.13
2019-04-29T01:21:15.825Z,97047.31
2019-04-29T01:23:47.541Z,97041.93
2019-04-29T01:26:38.039Z,97041.65
2019-04-29T01:29:10.835Z,97039.88
2019-04-29T01:31:42.729Z,97043.34
2019-04-29T01:34:28.562Z,97039.34
2019-04-29T01:37:00.423Z,97040.42
2019-04-29T01:39:47.890Z,97041.11
2019-04-29T01:42:23.592Z,97043.02
2019-04-29T01:44:55.138Z,97046.38
2019-04-29T01:47:26.895Z,97043.89
2019-04-29T01:49:58.604Z,97041.07
2019-04-29T01:52:30.277Z,97043.37
2019-04-29T01:55:01.934Z,97043.92
2019-04-29T01:57:33.767Z,97042.30
2019-04-29T02:00:06.296Z,97040.92
2019-04-29T02:02:38.184Z,97042.14
2019-04-29T02:05:09.953Z,97038.72
2019-04-29T02:07:41.545Z,97035.98
2019-04-29T02:10:28.328Z,97035.14
2019-04-29T02:12:59.962Z,97035.83
2019-04-29T02:15:32.645Z,97034.99
2019-04-29T02:18:04.453Z,97039.89
2019-04-29T02:20:36.601Z,97033.88
2019-04-29T02:23:26.913Z,97038.60
2019-04-29T02:25:58.659Z,97039.35
2019-04-29T02:28:30.219Z,97042.03
2019-04-29T02:31:20.716Z,97043.94
2019-04-29T02:33:52.379Z,97039.66
2019-04-29T02:36:24.100Z,97046.91
2019-04-29T02:39:08.025Z,97051.11
2019-04-29T02:41:50.690Z,97050.11
2019-04-29T02:44:22.262Z,97050.33
2019-04-29T02:46:55.301Z,97043.33
2019-04-29T02:49:26.927Z,97038.97
2019-04-29T02:51:58.601Z,97043.08
2019-04-29T02:54:30.611Z,97039.88
2019-04-29T02:57:20.236Z,97039.33
2019-04-29T02:59:54.760Z,97042.25
2019-04-29T03:02:37.061Z,97045.53
2019-04-29T03:05:17.497Z,97047.51
2019-04-29T03:07:49.571Z,97051.66
2019-04-29T03:10:21.275Z,97047.59
2019-04-29T03:12:53.068Z,97049.21
2019-04-29T03:15:32.480Z,97052.09
2019-04-29T03:18:06.048Z,97052.53
2019-04-29T03:21:15.175Z,97049.94
2019-04-29T03:23:46.875Z,97048.96
2019-04-29T03:26:18.614Z,97043.22
2019-04-29T03:28:50.812Z,97037.81
2019-04-29T03:31:23.364Z,97049.71
2019-04-29T03:33:57.491Z,97046.62
2019-04-29T03:36:29.694Z,97047.33
2019-04-29T03:39:02.935Z,97036.05
2019-04-29T03:41:39.142Z,97040.30
2019-04-29T03:44:11.433Z,97046.88
2019-04-29T03:46:44.140Z,97045.11
2019-04-29T03:49:15.869Z,97047.48
2019-04-29T03:51:48.169Z,97047.56
2019-04-29T03:54:20.074Z,97046.19
2019-04-29T03:56:54.262Z,97051.71
2019-04-29T03:59:27.130Z,97056.36
2019-04-29T04:02:17.612Z,97054.92
2019-04-29T04:05:15.053Z,97058.89
2019-04-29T04:07:56.976Z,97058.03
2019-04-29T04:10:28.917Z,97058.97
2019-04-29T04:13:00.438Z,97056.59
2019-04-29T04:15:32.182Z,97065.72
2019-04-29T04:18:26.000Z,97064.49
2019-04-29T04:20:57.861Z,97066.55
2019-04-29T04:23:29.524Z,97072.94
2019-04-29T04:26:01.475Z,97069.10
2019-04-29T04:28:33.166Z,97075.30
2019-04-29T04:31:06.915Z,97076.83
2019-04-29T04:33:39.564Z,97077.91
2019-04-29T04:36:11.275Z,97067.25
2019-04-29T04:38:43.040Z,97072.42
2019-04-29T04:41:15.784Z,97079.05
2019-04-29T04:43:48.433Z,97075.63
2019-04-29T04:46:20.095Z,97079.23
2019-04-29T04:48:52.328Z,97079.53
2019-04-29T04:51:28.034Z,97082.92
2019-04-29T04:54:00.017Z,97087.84
2019-04-29T04:56:32.386Z,97093.83
2019-04-29T04:59:04.156Z,97093.38
2019-04-29T05:01:36.200Z,97090.32
2019-04-29T05:04:10.762Z,97087.44
2019-04-29T05:06:45.316Z,97089.06
2019-04-29T05:09:17.510Z,97084.41
2019-04-29T05:11:49.725Z,97089.66
2019-04-29T05:14:21.405Z,97091.07
2019-04-29T05:16:53.356Z,97080.00
2019-04-29T05:19:27.356Z,97082.53
2019-04-29T05:22:00.633Z,97079.26
2019-04-29T05:24:32.340Z,97080.38
2019-04-29T05:27:05.322Z,97093.04
2019-04-29T05:29:37.006Z,97091.98
2019-04-29T05:32:09.973Z,97090.09
2019-04-29T05:34:46.465Z,97087.16
2019-04-29T05:37:35.492Z,97094.39
2019-04-29T05:40:07.758Z,97096.76
2019-04-29T05:42:39.459Z,97095.06
2019-04-29T05:45:32.975Z,97099.94
2019-04-29T05:48:14.340Z,97103.02
2019-04-29T05:50:57.614Z,97099.22
2019-04-29T05:53:33.788Z,97101.91
2019-04-29T05:56:07.060Z,97101.30
2019-04-29T05:58:39.621Z,97105.27
2019-04-29T06:01:17.194Z,97098.72
2019-04-29T06:03:50.384Z,97102.47
2019-04-29T06:06:22.892Z,97098.55
2019-04-29T06:08:54.466Z,97105.61
2019-04-29T06:11:26.745Z,97113.63
2019-04-29T06:13:58.408Z,97117.39
2019-04-29T06:16:30.458Z,97113.14
2019-04-29T06:19:05.876Z,97107.55
2019-04-29T06:21:37.190Z,97114.75
2019-04-29T06:24:10.314Z,97120.00
2019-04-29T06:26:43.797Z,97123.27
2019-04-29T06:29:15.418Z,97128.47
2019-04-29T06:31:47.126Z,97121.70
2019-04-29T06:34:18.841Z,97126.97
2019-04-29T06:36:50.614Z,97130.33
2019-04-29T06:39:23.078Z,97118.94
2019-04-29T06:41:55.873Z,97130.61
2019-04-29T06:44:27.561Z,97132.35
2019-04-29T06:46:59.202Z,97132.45
2019-04-29T06:49:31.135Z,97130.46
2019-04-29T06:52:03.952Z,97129.60
2019-04-29T06:54:37.143Z,97125.67
2019-04-29T06:57:09.765Z,97127.09
2019-04-29T06:59:43.020Z,97128.41
2019-04-29T07:02:16.095Z,97125.78
2019-04-29T07:04:47.964Z,97127.63
2019-04-29T07:07:22.299Z,97133.71
2019-04-29T07:09:56.777Z,97130.45
2019-04-29T07:12:27.769Z,97131.45
2019-04-29T07:14:59.582Z,97130.58
2019-04-29T07:17:31.237Z,97120.91
2019-04-29T07:20:04.516Z,97125.33
2019-04-29T07:22:36.188Z,97126.13
2019-04-29T07:25:09.443Z,97120.08
2019-04-29T07:27:44.227Z,97125.82
2019-04-29T07:30:15.075Z,97130.37
2019-04-29T07:32:48.932Z,97135.97
2019-04-29T07:35:24.691Z,97140.28
2019-04-29T07:37:57.476Z,97142.44
2019-04-29T07:40:29.518Z,97132.99
2019-04-29T07:43:02.943Z,97138.97
2019-04-29T07:45:53.501Z,97138.25
2019-04-29T07:48:25.765Z,97143.66
2019-04-29T07:50:59.530Z,97149.58
2019-04-29T07:53:38.716Z,97153.16
2019-04-29T07:56:06.512Z,97152.95
2019-04-29T07:58:38.887Z,97151.81
2019-04-29T08:01:10.644Z,97148.45
2019-04-29T08:03:44.092Z,97154.11
2019-04-29T08:06:19.468Z,97150.80
2019-04-29T08:08:55.068Z,97152.95
2019-04-29T08:11:24.758Z,97152.27
2019-04-29T08:13:56.659Z,97155.33
2019-04-29T08:16:30.740Z,97155.58
2019-04-29T08:19:09.497Z,97153.52
2019-04-29T08:21:49.826Z,97142.94
2019-04-29T08:24:22.638Z,97145.79
2019-04-29T08:26:54.998Z,97136.78
2019-04-29T08:29:30.848Z,97139.45
2019-04-29T08:32:02.579Z,97148.09
2019-04-29T08:34:34.593Z,97139.06
2019-04-29T08:37:08.434Z,97143.30
2019-04-29T08:39:40.584Z,97149.94
2019-04-29T08:42:18.597Z,97141.39
2019-04-29T08:45:21.108Z,97143.17
2019-04-29T08:47:56.223Z,97146.47
2019-04-29T08:50:28.898Z,97141.19
2019-04-29T08:53:03.506Z,97143.31
2019-04-29T08:55:37.096Z,97147.26
2019-04-29T08:58:11.284Z,97145.20
2019-04-29T09:00:44.050Z,97140.39
2019-04-29T09:03:18.711Z,97144.21
2019-04-29T09:06:04.425Z,97146.28
2019-04-29T09:08:28.753Z,97149.92
2019-04-29T09:11:00.209Z,97150.06
2019-04-29T09:13:34.457Z,97144.46
2019-04-29T09:16:06.839Z,97138.73
2019-04-29T09:18:39.945Z,97136.50
2019-04-29T09:21:12.616Z,97134.98
2019-04-29T09:23:45.631Z,97136.09
2019-04-29T09:26:27.663Z,97138.19
2019-04-29T09:29:21.512Z,97133.59
2019-04-29T09:31:55.150Z,97127.98
2019-04-29T09:34:27.981Z,97122.52
2019-04-29T09:37:04.134Z,97119.02
2019-04-29T09:39:43.367Z,97122.16
2019-04-29T09:42:35.259Z,97118.00
2019-04-29T09:45:32.237Z,97114.94
2019-04-29T09:48:06.701Z,97108.67
2019-04-29T09:50:41.852Z,97102.58
2019-04-29T09:53:14.139Z,97103.55
2019-04-29T09:55:46.331Z,97095.59
2019-04-29T09:58:21.334Z,97101.65
2019-04-29T10:01:13.893Z,97094.64
2019-04-29T10:04:01.683Z,97091.24
2019-04-29T10:06:36.085Z,97098.88
2019-04-29T10:09:11.892Z,97098.01
2019-04-29T10:11:43.916Z,97098.31
2019-04-29T10:14:15.991Z,97097.95
2019-04-29T10:17:15.498Z,97096.30
2019-04-29T10:20:17.521Z,97090.36
2019-04-29T10:22:53.797Z,97097.82
2019-04-29T10:25:25.734Z,97090.40
2019-04-29T10:27:58.032Z,97091.30
2019-04-29T10:30:32.542Z,97083.88
2019-04-29T10:33:05.766Z,97078.99
2019-04-29T10:35:40.794Z,97078.31
2019-04-29T10:38:13.776Z,97073.92
2019-04-29T10:41:07.663Z,97069.81
2019-04-29T10:43:59.223Z,97064.27
2019-04-29T10:46:54.189Z,97062.13
2019-04-29T10:49:34.771Z,97060.70
2019-04-29T10:52:07.815Z,97067.72
2019-04-29T10:54:43.411Z,97058.45
2019-04-29T10:57:17.380Z,97058.66
2019-04-29T10:59:53.024Z,97059.01
2019-04-29T11:02:44.830Z,97057.89
2019-04-29T11:05:36.368Z,97050.20
2019-04-29T11:08:24.341Z,97050.59
2019-04-29T11:11:02.389Z,97047.94
2019-04-29T11:13:34.374Z,97049.33
2019-04-29T11:16:10.710Z,97050.27
2019-04-29T11:21:14.746Z,97052.79
2019-04-29T11:24:00.848Z,97045.27
2019-04-29T11:26:44.543Z,97042.54
2019-04-29T11:29:15.607Z,97054.06
2019-04-29T11:31:54.088Z,97045.08
2019-04-29T11:34:52.663Z,97045.98
2019-04-29T11:37:24.075Z,97044.52
2019-04-29T11:39:57.198Z,97036.08
2019-04-29T11:42:31.834Z,97035.91
2019-04-29T11:45:08.272Z,97038.52
2019-04-29T11:47:42.141Z,97039.02
2019-04-29T11:50:20.448Z,97039.20
2019-04-29T11:52:55.514Z,97038.13
2019-04-29T11:55:26.685Z,97047.08
2019-04-29T11:58:04.499Z,97035.95
2019-04-29T12:00:55.642Z,97041.77
2019-04-29T12:03:37.555Z,97036.61
2019-04-29T12:06:11.083Z,97021.27
2019-04-29T12:08:43.704Z,97029.69
2019-04-29T12:11:17.602Z,97026.12
2019-04-29T12:14:08.127Z,97024.62
2019-04-29T12:16:43.988Z,97034.32
2019-04-29T12:19:26.810Z,97032.03
2019-04-29T12:21:58.680Z,97024.27
2019-04-29T12:24:31.367Z,97017.52
2019-04-29T12:27:03.481Z,97019.70
2019-04-29T12:29:35.958Z,97017.38
2019-04-29T12:32:24.984Z,97003.80
2019-04-29T12:35:32.072Z,97005.28
2019-04-29T12:38:39.801Z,97008.03
2019-04-29T12:41:29.819Z,96995.34
2019-04-29T12:44:35.322Z,96989.42
2019-04-29T12:47:26.240Z,96982.14
2019-04-29T12:49:52.313Z,96984.53
2019-04-29T12:52:25.803Z,96977.66
2019-04-29T12:55:18.951Z,96976.95
2019-04-29T12:57:35.898Z,96981.44
2019-04-29T13:00:09.687Z,96970.69
2019-04-29T13:03:04.035Z,96975.60
2019-04-29T13:05:58.357Z,96964.59
2019-04-29T13:08:33.971Z,96959.16
2019-04-29T13:11:08.130Z,96940.48
2019-04-29T13:13:40.404Z,96947.80
2019-04-29T13:16:35.158Z,96941.77
2019-04-29T13:19:29.677Z,96948.73
2019-04-29T13:22:03.906Z,96944.98
2019-04-29T13:24:38.505Z,96938.57
2019-04-29T13:27:15.920Z,96937.36
2019-04-29T13:29:42.821Z,96944.55
2019-04-29T13:32:15.805Z,96935.36
2019-04-29T13:34:50.210Z,96932.82
2019-04-29T13:37:22.129Z,96935.98
2019-04-29T13:39:55.676Z,96929.79
2019-04-29T13:42:27.672Z,96935.90
2019-04-29T13:45:07.900Z,96927.22
2019-04-29T13:48:07.122Z,96929.52
2019-04-29T13:50:44.426Z,96927.52
2019-04-29T13:53:18.482Z,96931.45
2019-04-29T13:56:10.058Z,96926.22
2019-04-29T13:58:27.043Z,96918.06
2019-04-29T14:01:27.649Z,96915.60
2019-04-29T14:04:03.597Z,96914.44
2019-04-29T14:06:36.761Z,96912.64
2019-04-29T14:09:10.198Z,96914.80
2019-04-29T14:11:42.859Z,96910.86
2019-04-29T14:14:17.970Z,96906.60
2019-04-29T14:16:49.559Z,96904.47
2019-04-29T14:19:40.307Z,96904.13
2019-04-29T14:21:55.001Z,96895.97
2019-04-29T14:24:28.178Z,96898.42
2019-04-29T14:26:59.742Z,96893.84
2019-04-29T14:29:33.054Z,96892.20
2019-04-29T14:32:05.937Z,96888.78
2019-04-29T14:34:46.153Z,96892.39
2019-04-29T14:37:23.499Z,96889.75
2019-04-29T14:39:52.477Z,96887.95
2019-04-29T14:42:57.396Z,96880.59
2019-04-29T14:45:45.187Z,96880.25
2019-04-29T14:48:42.697Z,96879.78
2019-04-29T14:51:14.453Z,96876.16
2019-04-29T14:53:56.280Z,96874.53
2019-04-29T14:56:19.872Z,96862.45
2019-04-29T14:59:05.756Z,96855.77
2019-04-29T15:01:39.136Z,96856.89
2019-04-29T15:04:18.253Z,96861.96
2019-04-29T15:06:46.887Z,96855.92
2019-04-29T15:09:20.068Z,96856.50
2019-04-29T15:12:17.177Z,96855.09
2019-04-29T15:14:59.217Z,96852.30
2019-04-29T15:17:44.712Z,96846.37
2019-04-29T15:20:34.630Z,96850.31
2019-04-29T15:23:07.260Z,96846.32
2019-04-29T15:25:39.830Z,96835.56
2019-04-29T15:28:11.473Z,96843.51
2019-04-29T15:30:44.261Z,96835.19
2019-04-29T15:33:17.261Z,96834.25
2019-04-29T15:35:49.633Z,96840.92
2019-04-29T15:38:21.796Z,96840.44
2019-04-29T15:40:53.480Z,96828.28
2019-04-29T15:43:45.740Z,96832.22
2019-04-29T15:46:00.295Z,96826.44
2019-04-29T15:48:33.110Z,96824.89
2019-04-29T15:51:09.189Z,96824.89
2019-04-29T15:53:39.011Z,96820.05
2019-04-29T15:56:27.789Z,96827.23
2019-04-29T15:58:44.084Z,96821.81
2019-04-29T16:01:26.909Z,96826.95
2019-04-29T16:03:54.837Z,96829.24
2019-04-29T16:06:44.463Z,96828.28
2019-04-29T16:09:51.299Z,96827.52
2019-04-29T16:12:15.689Z,96824.15
2019-04-29T16:14:49.159Z,96817.42
2019-04-29T16:17:21.181Z,96817.56
2019-04-29T16:19:54.487Z,96811.81
2019-04-29T16:22:26.112Z,96809.20
2019-04-29T16:27:32.083Z,96819.30
2019-04-29T16:30:04.000Z,96819.86
2019-04-29T16:32:41.404Z,96834.02
2019-04-29T16:35:28.805Z,96832.05
2019-04-29T16:38:05.748Z,96827.41
2019-04-29T16:40:39.427Z,96828.24
2019-04-29T16:43:27.711Z,96831.62
2019-04-29T16:46:06.396Z,96831.19
2019-04-29T16:48:38.977Z,96840.45
2019-04-29T16:51:14.464Z,96836.16
2019-04-29T16:53:44.840Z,96832.81
2019-04-29T16:56:17.643Z,96837.87
2019-04-29T16:58:50.024Z,96836.14
2019-04-29T17:01:21.947Z,96838.93
2019-04-29T17:03:53.596Z,96835.28
2019-04-29T17:06:25.567Z,96842.94
2019-04-29T17:09:13.853Z,96844.33
2019-04-29T17:11:50.461Z,96839.80
2019-04-29T17:14:20.525Z,96845.14
2019-04-29T17:16:52.344Z,96847.81
2019-04-29T17:19:24.296Z,96848.76
2019-04-29T17:22:23.634Z,96843.87
2019-04-29T17:24:29.459Z,96845.33
2019-04-29T17:27:15.731Z,96845.36
2019-04-29T17:30:24.499Z,96845.86
2019-04-29T17:33:26.482Z,96838.70
2019-04-29T17:35:17.951Z,96821.63
2019-04-29T17:35:49.373Z,96837.41
2019-04-29T17:38:21.100Z,96842.02
2019-04-29T17:40:53.353Z,96841.07
2019-04-29T17:43:44.726Z,96842.17
2019-04-29T17:46:38.227Z,96840.00
2019-04-29T17:49:31.343Z,96843.03
2019-04-29T17:52:06.725Z,96836.78
2019-04-29T17:54:41.170Z,96842.02
2019-04-29T17:57:36.576Z,96855.08
2019-04-29T18:00:43.766Z,96848.09
2019-04-29T18:03:41.244Z,96849.00
2019-04-29T18:06:18.819Z,96851.98
2019-04-29T18:08:52.434Z,96850.27
2019-04-29T18:11:25.085Z,96848.48
2019-04-29T18:13:58.133Z,96848.48
2019-04-29T18:16:43.697Z,96851.45
2019-04-29T18:19:21.112Z,96850.50
2019-04-29T18:22:31.076Z,96853.23
2019-04-29T18:25:30.692Z,96852.55
2019-04-29T18:28:00.033Z,96858.70
2019-04-29T18:30:35.769Z,96859.69
2019-04-29T18:33:02.265Z,96854.44
2019-04-29T18:35:35.464Z,96859.41
2019-04-29T18:38:11.906Z,96856.86
2019-04-29T18:40:42.260Z,96863.16
2019-04-29T18:43:14.978Z,96863.23
2019-04-29T18:45:56.202Z,96862.79
2019-04-29T18:48:22.871Z,96868.23
2019-04-29T18:50:56.897Z,96864.72
2019-04-29T18:53:28.520Z,96867.75
2019-04-29T18:56:00.395Z,96869.25
2019-04-29T18:58:32.077Z,96868.60
2019-04-29T19:01:05.315Z,96871.45
2019-04-29T19:03:52.714Z,96865.63
2019-04-29T19:06:24.515Z,96869.28
2019-04-29T19:09:01.727Z,96866.11
2019-04-29T19:11:32.713Z,96862.95
2019-04-29T19:14:05.006Z,96864.55
2019-04-29T19:16:39.371Z,96865.99
2019-04-29T19:19:10.112Z,96864.16
2019-04-29T19:21:43.014Z,96853.52
2019-04-29T19:24:16.195Z,96857.58
2019-04-29T19:26:48.725Z,96859.64
2019-04-29T19:29:20.437Z,96857.31
2019-04-29T19:31:52.283Z,96860.05
2019-04-29T19:34:25.199Z,96862.64
2019-04-29T19:36:59.413Z,96860.05
2019-04-29T19:39:30.550Z,96858.53
2019-04-29T19:42:02.386Z,96853.67
2019-04-29T19:44:36.625Z,96855.66
2019-04-29T19:47:10.969Z,96854.08
2019-04-29T19:49:44.632Z,96851.13
2019-04-29T19:52:19.071Z,96852.36
2019-04-29T19:54:47.824Z,96846.63
2019-04-29T19:57:19.608Z,96837.98
2019-04-29T19:59:53.636Z,96844.78
2019-04-29T20:02:25.918Z,96844.42
2019-04-29T20:05:10.845Z,96835.41
2019-04-29T20:07:44.401Z,96834.41
2019-04-29T20:10:17.379Z,96834.05
2019-04-29T20:12:53.350Z,96837.98
2019-04-29T20:15:25.503Z,96834.66
2019-04-29T20:18:23.584Z,96838.70
2019-04-29T20:21:08.640Z,96838.55
2019-04-29T20:23:36.165Z,96837.11
2019-04-29T20:26:13.800Z,96839.38
2019-04-29T20:28:38.986Z,96836.53
2019-04-29T20:31:19.203Z,96832.23
2019-04-29T20:33:46.795Z,96833.92
2019-04-29T20:36:33.030Z,96828.13
2019-04-29T20:38:51.292Z,96822.37
2019-04-29T20:41:38.115Z,96821.69
2019-04-29T20:43:56.664Z,96819.93
2019-04-29T20:46:40.107Z,96814.27
2019-04-29T20:49:03.516Z,96817.30
2019-04-29T20:51:48.680Z,96814.16
2019-04-29T20:54:19.636Z,96809.04
2019-04-29T20:57:02.097Z,96805.48
2019-04-29T20:59:25.870Z,96809.05
2019-04-29T21:02:12.221Z,96806.59
2019-04-29T21:04:45.792Z,96807.36
2019-04-29T21:07:11.299Z,96803.42
2019-04-29T21:09:43.110Z,96811.92
2019-04-29T21:12:25.544Z,96804.20
2019-04-29T21:15:00.470Z,96804.56
2019-04-29T21:17:32.232Z,96795.41
2019-04-29T21:20:04.011Z,96792.55
2019-04-29T21:22:35.816Z,96789.81
2019-04-29T21:25:08.734Z,96787.36
2019-04-29T21:27:41.926Z,96790.57
2019-04-29T21:30:13.959Z,96783.30
2019-04-29T21:32:45.736Z,96782.36
2019-04-29T21:35:39.443Z,96788.17
2019-04-29T21:38:45.521Z,96779.91
2019-04-29T21:41:25.507Z,96773.62
2019-04-29T21:43:57.570Z,96775.61
2019-04-29T21:46:29.672Z,96769.20
2019-04-29T21:49:05.087Z,96773.34
2019-04-29T21:51:35.894Z,96771.11
2019-04-29T21:54:09.705Z,96767.69
2019-04-29T21:56:46.462Z,96764.48
2019-04-29T21:59:15.778Z,96764.69
2019-04-29T22:01:48.360Z,96756.51
2019-04-29T22:04:20.137Z,96751.04
2019-04-29T22:06:51.959Z,96757.13
2019-04-29T22:09:35.277Z,96754.61
2019-04-29T22:11:57.747Z,96758.83
2019-04-29T22:14:29.314Z,96758.00
2019-04-29T22:17:01.024Z,96754.39
2019-04-29T22:19:34.947Z,96748.98
2019-04-29T22:22:06.271Z,96751.33
2019-04-29T22:24:39.064Z,96750.50
2019-04-29T22:27:10.990Z,96745.45
2019-04-29T22:29:42.778Z,96744.74
2019-04-29T22:32:19.098Z,96744.27
2019-04-29T22:34:49.543Z,96740.59
2019-04-29T22:37:21.555Z,96739.48
2019-04-29T22:39:53.811Z,96727.34
2019-04-29T22:42:42.672Z,96737.67
2019-04-29T22:45:14.577Z,96728.86
2019-04-29T22:47:46.372Z,96730.58
2019-04-29T22:50:18.662Z,96727.84
2019-04-29T22:52:50.409Z,96723.92
2019-04-29T22:55:22.001Z,96724.70
2019-04-29T22:57:55.449Z,96727.19
2019-04-29T23:00:32.789Z,96725.41
2019-04-29T23:03:03.469Z,96719.33
2019-04-29T23:05:35.645Z,96724.44
2019-04-29T23:08:08.518Z,96718.16
2019-04-29T23:10:40.187Z,96712.50
2019-04-29T23:13:11.938Z,96719.98
2019-04-29T23:15:45.537Z,96719.66
2019-04-29T23:18:24.552Z,96711.05
2019-04-29T23:21:16.547Z,96712.61
2019-04-29T23:23:55.191Z,96711.25
2019-04-29T23:26:26.954Z,96716.66
2019-04-29T23:28:59.405Z,96707.15
2019-04-29T23:31:33.187Z,96699.05
2019-04-29T23:34:05.786Z,96704.09
2019-04-29T23:36:37.469Z,96698.83
2019-04-29T23:39:09.228Z,96696.98
2019-04-29T23:41:41.250Z,96698.98
2019-04-29T23:44:12.916Z,96693.77
2019-04-29T23:46:47.314Z,96690.70
2019-04-29T23:49:18.054Z,96682.25
2019-04-29T23:51:49.650Z,96689.27
2019-04-29T23:54:21.399Z,96676.83
2019-04-29T23:57:23.776Z,96675.06
